EGKA - Shoreham Airport
Distance from station: E 5mi, 14km
Updated: 07/21/2018 9:50am
Clear
Clear
 Wind from SW
Wind: SW 14 mph , 22 km/h
Temperature: 70°F , 21°C
Dew Point: 55°F , 13°C
Humidity: 60%
Barometer: 29.97 inHg , 1015 hPa
Summary: Clear
Visibility: greater than 7 miles , 10 km
2018/07/21 16:50 EGKA 211650Z 22012KT CAVOK 21/13 Q1015